South Canaan, Pennsylvania
Current Conditions -  °F | °C
As of 9:54 PM on Thursday 18 Dec 2014 (Local Time) from KAVP Reporting Station
Overcast Overcast  
Wind Chill: 28°   Ceiling: 2700
Heat Index: 34°   Visibility: 10mi
Dew Point: 24°   Wind: 7mph
Humidity: 67%   Direction: 290°WNW
Pressure: 29.99"   Gusts: NA
Location:  41.51°N, 75.41°W
Report Text: KAVP 190254Z AUTO 29006KT 10SM OVC027 01/M04 A2999 RMK AO2 SLP163 T00111044 55001
Loading
Personal Weather Stations






























Interactive Weather Map New forecast layout! Learn more

10-Day Weather Forecast

Advertisements
Track Severe Weather on mobile